createdAt,value
2022-10-18T00:04:45.026Z,99570.27
2022-10-18T00:10:07.406Z,99569.52
2022-10-18T00:15:29.151Z,99569.35
2022-10-18T00:20:59.138Z,99572.85
2022-10-18T00:26:25.518Z,99567.66
2022-10-18T00:31:47.146Z,99566.95
2022-10-18T00:37:09.211Z,99562.31
2022-10-18T00:42:35.322Z,99551.13
2022-10-18T00:48:02.774Z,99553.45
2022-10-18T00:53:24.432Z,99549.66
2022-10-18T00:58:47.330Z,99546.87
2022-10-18T01:04:09.210Z,99541.94
2022-10-18T01:09:44.848Z,99535.20
2022-10-18T01:15:28.345Z,99540.11
2022-10-18T01:21:09.841Z,99546.25
2022-10-18T01:27:14.118Z,99542.85
2022-10-18T01:32:40.272Z,99531.15
2022-10-18T01:38:06.519Z,99529.49
2022-10-18T01:43:29.267Z,99524.77
2022-10-18T01:48:52.475Z,99519.73
2022-10-18T01:54:18.316Z,99522.19
2022-10-18T01:59:59.125Z,99512.95
2022-10-18T02:05:38.801Z,99512.55
2022-10-18T02:11:04.086Z,99517.58
2022-10-18T02:16:29.999Z,99517.33
2022-10-18T02:21:54.110Z,99505.55
2022-10-18T02:27:15.987Z,99495.78
2022-10-18T02:33:04.576Z,99499.95
2022-10-18T02:38:27.207Z,99494.14
2022-10-18T02:43:51.099Z,99494.05
2022-10-18T02:49:12.470Z,99487.73
2022-10-18T02:54:34.049Z,99481.27
2022-10-18T02:59:55.865Z,99480.95
2022-10-18T03:05:17.559Z,99478.12
2022-10-18T03:10:39.291Z,99481.27
2022-10-18T03:16:00.813Z,99476.07
2022-10-18T03:21:22.846Z,99479.02
2022-10-18T03:26:44.273Z,99489.91
2022-10-18T03:32:06.514Z,99488.38
2022-10-18T03:37:28.223Z,99486.98
2022-10-18T03:42:50.259Z,99484.01
2022-10-18T03:48:11.966Z,99482.58
2022-10-18T03:53:33.542Z,99489.52
2022-10-18T03:58:55.044Z,99499.98
2022-10-18T04:04:17.139Z,99500.60
2022-10-18T04:09:39.104Z,99500.69
2022-10-18T04:15:01.035Z,99500.73
2022-10-18T04:20:23.768Z,99507.35
2022-10-18T04:25:45.712Z,99505.61
2022-10-18T04:31:07.422Z,99507.92
2022-10-18T04:36:29.251Z,99503.64
2022-10-18T04:41:50.942Z,99504.61
2022-10-18T04:47:12.368Z,99502.30
2022-10-18T04:52:33.869Z,99497.95
2022-10-18T04:57:55.550Z,99497.91
2022-10-18T05:03:17.959Z,99492.07
2022-10-18T05:08:40.125Z,99490.58
2022-10-18T05:14:01.855Z,99500.06
2022-10-18T05:19:24.260Z,99491.35
2022-10-18T05:24:46.716Z,99492.86
2022-10-18T05:30:08.851Z,99499.11
2022-10-18T05:35:30.698Z,99494.35
2022-10-18T05:40:52.733Z,99494.77
2022-10-18T05:46:15.677Z,99495.11
2022-10-18T05:51:37.957Z,99495.71
2022-10-18T05:56:59.797Z,99498.61
2022-10-18T06:02:21.484Z,99495.52
2022-10-18T06:07:43.167Z,99496.97
2022-10-18T06:13:05.050Z,99492.27
2022-10-18T06:18:27.090Z,99490.97
2022-10-18T06:23:50.091Z,99494.78
2022-10-18T06:29:11.845Z,99492.74
2022-10-18T06:34:34.508Z,99492.01
2022-10-18T06:39:56.136Z,99491.64
2022-10-18T06:45:18.532Z,99485.89
2022-10-18T06:50:40.194Z,99486.30
2022-10-18T06:56:05.106Z,99483.91
2022-10-18T07:01:28.636Z,99488.27
2022-10-18T07:06:50.398Z,99490.69
2022-10-18T07:12:12.188Z,99492.81
2022-10-18T07:17:34.376Z,99493.57
2022-10-18T07:22:57.276Z,99499.69
2022-10-18T07:28:18.878Z,99497.48
2022-10-18T07:33:40.684Z,99492.65
2022-10-18T07:39:02.242Z,99493.90
2022-10-18T07:44:24.235Z,99490.27
2022-10-18T07:49:45.841Z,99486.95
2022-10-18T07:55:07.799Z,99478.42
2022-10-18T08:00:29.536Z,99478.70
2022-10-18T08:05:53.615Z,99472.58
2022-10-18T08:11:21.019Z,99468.36
2022-10-18T08:16:42.690Z,99465.01
2022-10-18T08:22:04.717Z,99457.98
2022-10-18T08:27:26.424Z,99449.90
2022-10-18T08:32:48.412Z,99445.77
2022-10-18T08:38:16.480Z,99434.50
2022-10-18T08:43:47.264Z,99432.11
2022-10-18T08:49:15.958Z,99428.63
2022-10-18T08:54:40.300Z,99423.73
2022-10-18T09:00:16.272Z,99413.98
2022-10-18T09:05:51.690Z,99416.55
2022-10-18T09:11:34.908Z,99413.00
2022-10-18T09:17:18.164Z,99410.36
2022-10-18T09:22:53.287Z,99411.70
2022-10-18T09:28:43.022Z,99407.27
2022-10-18T09:34:13.235Z,99403.56
2022-10-18T09:39:38.027Z,99398.09
2022-10-18T09:45:03.426Z,99398.14
2022-10-18T09:50:34.750Z,99392.66
2022-10-18T09:56:06.297Z,99389.08
2022-10-18T10:01:30.519Z,99382.21
2022-10-18T10:06:54.605Z,99378.77
2022-10-18T10:12:26.838Z,99378.99
2022-10-18T10:17:57.336Z,99367.42
2022-10-18T10:23:44.264Z,99356.58
2022-10-18T10:29:47.456Z,99345.70
2022-10-18T10:35:52.489Z,99336.55
2022-10-18T10:41:23.483Z,99328.12
2022-10-18T10:46:45.790Z,99319.36
2022-10-18T10:52:36.876Z,99308.09
2022-10-18T10:57:59.034Z,99299.34
2022-10-18T11:03:30.147Z,99287.23
2022-10-18T11:08:53.206Z,99278.82
2022-10-18T11:14:27.395Z,99275.41
2022-10-18T11:20:09.596Z,99265.55
2022-10-18T11:26:01.459Z,99254.66
2022-10-18T11:32:00.853Z,99245.39
2022-10-18T11:37:38.260Z,99234.81
2022-10-18T11:43:13.283Z,99227.27
2022-10-18T11:49:03.440Z,99219.50
2022-10-18T11:54:27.970Z,99213.05
2022-10-18T12:00:08.518Z,99201.15
2022-10-18T12:05:31.956Z,99200.63
2022-10-18T12:11:05.153Z,99190.69
2022-10-18T12:16:50.033Z,99180.96
2022-10-18T12:22:21.504Z,99172.46
2022-10-18T12:28:02.928Z,99159.55
2022-10-18T12:33:29.656Z,99158.98
2022-10-18T12:39:00.779Z,99156.48
2022-10-18T12:44:30.079Z,99141.88
2022-10-18T12:49:57.515Z,99133.27
2022-10-18T12:55:19.588Z,99127.14
2022-10-18T13:00:41.729Z,99121.77
2022-10-18T13:06:06.597Z,99115.05
2022-10-18T13:11:36.309Z,99110.25
2022-10-18T13:17:11.043Z,99109.80
2022-10-18T13:23:13.644Z,99106.50
2022-10-18T13:28:50.851Z,99108.65
2022-10-18T13:34:25.215Z,99095.31
2022-10-18T13:39:47.784Z,99084.86
2022-10-18T13:45:31.670Z,99073.39
2022-10-18T13:50:57.596Z,99080.48
2022-10-18T13:57:27.781Z,99079.38
2022-10-18T14:09:32.909Z,99071.05
2022-10-18T14:15:07.753Z,99069.02
2022-10-18T14:20:49.576Z,99063.51
2022-10-18T14:26:19.584Z,99064.81
2022-10-18T14:31:42.052Z,99060.05
2022-10-18T14:37:03.801Z,99042.83
2022-10-18T14:42:27.814Z,99037.48
2022-10-18T14:47:49.842Z,99032.99
2022-10-18T14:53:22.157Z,99023.25
2022-10-18T14:58:43.838Z,99015.08
2022-10-18T15:04:10.072Z,99015.98
2022-10-18T15:09:33.665Z,99008.87
2022-10-18T15:14:56.172Z,99006.11
2022-10-18T15:20:25.161Z,99005.27
2022-10-18T15:25:47.247Z,98987.02
2022-10-18T15:31:22.043Z,98980.27
2022-10-18T15:42:37.630Z,98983.55
2022-10-18T15:48:13.111Z,98989.58
2022-10-18T15:53:37.334Z,98991.61
2022-10-18T15:59:01.223Z,98992.56
2022-10-18T16:04:28.808Z,98995.44
2022-10-18T16:09:50.299Z,98997.26
2022-10-18T16:15:12.013Z,99002.90
2022-10-18T16:20:33.827Z,99005.58
2022-10-18T16:25:55.627Z,99005.63
2022-10-18T16:31:20.662Z,99016.64
2022-10-18T16:36:42.042Z,99023.42
2022-10-18T16:42:04.103Z,99021.87
2022-10-18T16:47:25.799Z,99023.64
2022-10-18T16:52:47.753Z,99025.55
2022-10-18T16:58:17.863Z,99031.48
2022-10-18T17:03:39.908Z,99035.15
2022-10-18T17:09:01.850Z,99041.23
2022-10-18T17:14:23.679Z,99043.48
2022-10-18T17:19:45.806Z,99055.13
2022-10-18T17:25:08.140Z,99062.27
2022-10-18T17:30:50.842Z,99068.52
2022-10-18T17:36:12.994Z,99071.48
2022-10-18T17:41:34.426Z,99068.88
2022-10-18T17:46:56.341Z,99069.24
2022-10-18T17:52:18.453Z,99074.64
2022-10-18T17:57:41.285Z,99074.45
2022-10-18T18:03:03.015Z,99078.23
2022-10-18T18:08:25.882Z,99070.55
2022-10-18T18:13:47.856Z,99070.52
2022-10-18T18:19:10.341Z,99072.23
2022-10-18T18:24:32.238Z,99078.48
2022-10-18T18:29:53.989Z,99090.48
2022-10-18T18:35:15.768Z,99100.70
2022-10-18T18:40:37.255Z,99113.33
2022-10-18T18:45:59.410Z,99124.35
2022-10-18T18:51:21.924Z,99129.52
2022-10-18T18:56:43.688Z,99142.98
2022-10-18T19:02:05.315Z,99153.27
2022-10-18T19:07:27.311Z,99162.67
2022-10-18T19:12:49.070Z,99161.95
2022-10-18T19:18:10.811Z,99154.52
2022-10-18T19:23:32.891Z,99146.02
2022-10-18T19:28:55.744Z,99156.91
2022-10-18T19:34:18.930Z,99173.18
2022-10-18T19:39:40.324Z,99198.44
2022-10-18T19:45:03.068Z,99207.26
2022-10-18T19:55:57.898Z,99220.05
2022-10-18T20:01:20.353Z,99230.38
2022-10-18T20:06:42.700Z,99239.87
2022-10-18T20:12:06.683Z,99246.92
2022-10-18T20:17:28.685Z,99251.21
2022-10-18T20:22:50.632Z,99259.35
2022-10-18T20:28:12.104Z,99264.36
2022-10-18T20:33:35.376Z,99263.29
2022-10-18T20:38:57.793Z,99265.90
2022-10-18T20:44:21.042Z,99268.34
2022-10-18T20:49:42.756Z,99275.27
2022-10-18T20:55:04.609Z,99275.06
2022-10-18T21:00:26.260Z,99273.80
2022-10-18T21:05:48.143Z,99274.11
2022-10-18T21:11:11.227Z,99273.91
2022-10-18T21:16:35.057Z,99270.46
2022-10-18T21:21:57.592Z,99265.98
2022-10-18T21:27:19.114Z,99262.05
2022-10-18T21:32:41.015Z,99260.69
2022-10-18T21:38:03.394Z,99249.98
2022-10-18T21:43:25.301Z,99240.63
2022-10-18T21:48:50.120Z,99234.71
2022-10-18T21:54:14.036Z,99237.41
2022-10-18T21:59:35.724Z,99236.64
2022-10-18T22:04:57.437Z,99237.48
2022-10-18T22:10:19.270Z,99235.42
2022-10-18T22:15:40.968Z,99245.12
2022-10-18T22:21:06.546Z,99245.14
2022-10-18T22:26:30.820Z,99244.45
2022-10-18T22:31:54.408Z,99238.20
2022-10-18T22:37:16.038Z,99237.18
2022-10-18T22:42:37.902Z,99235.28
2022-10-18T22:47:59.558Z,99231.31
2022-10-18T22:53:23.804Z,99231.02
2022-10-18T22:58:46.125Z,99225.67
2022-10-18T23:04:07.720Z,99239.69
2022-10-18T23:09:29.350Z,99247.48
2022-10-18T23:14:50.972Z,99243.31
2022-10-18T23:20:12.698Z,99241.24
2022-10-18T23:25:38.045Z,99234.70
2022-10-18T23:30:59.724Z,99229.17
2022-10-18T23:36:22.366Z,99228.63
2022-10-18T23:41:43.880Z,99232.41
2022-10-18T23:47:05.237Z,99240.83
2022-10-18T23:52:27.063Z,99239.73
2022-10-18T23:57:48.696Z,99237.51
